Time;durP1;ratioP1;P1;durP2;ratioP2;P2;SDS_P1;SDS_P2;PMS_P1;PMS_P2;Temp;Humidity;BMP_temperature;BMP_pressure;BME280_temperature;BME280_humidity;BME280_pressure;Samples;Min_cycle;Max_cycle;Signal;HPM_P1;HPM_P2
2023/03/31 00:01:25;;;;;;;;;4.67;1.00;;;;;15.01;64.07;100007.69;5055046;28;45389;-68
2023/03/31 00:03:51;;;;;;;;;9.00;3.00;;;;;15.04;64.59;99999.63;5053431;28;46632;-69
2023/03/31 00:06:19;;;;;;;;;8.33;3.00;;;;;14.98;64.70;100002.34;5054905;28;45378;-68
2023/03/31 00:08:46;;;;;;;;;2.67;1.67;;;;;15.01;64.91;100028.31;5053537;28;45472;-69
2023/03/31 00:11:11;;;;;;;;;5.33;3.00;;;;;14.98;65.45;100025.63;5050192;28;45433;-69
2023/03/31 00:13:36;;;;;;;;;6.33;2.67;;;;;14.93;65.20;100010.44;5049715;28;46301;-69
2023/03/31 00:16:11;;;;;;;;;2.33;1.67;;;;;14.86;66.14;99997.00;5052999;28;45441;-69
2023/03/31 00:18:36;;;;;;;;;2.00;1.00;;;;;14.88;65.94;99988.03;5043202;28;45524;-69
2023/03/31 00:21:13;;;;;;;;;3.00;2.00;;;;;14.83;66.18;99933.38;5047673;28;45366;-69
2023/03/31 00:23:39;;;;;;;;;5.33;3.33;;;;;14.84;66.53;99929.75;5051388;28;46170;-69
2023/03/31 00:26:05;;;;;;;;;5.00;4.00;;;;;14.80;66.33;99936.06;5052948;28;45455;-68
2023/03/31 00:28:31;;;;;;;;;3.33;3.00;;;;;14.78;66.07;99893.94;5069279;28;45099;-70
2023/03/31 00:51:07;;;;;;;;;3.00;1.67;;;;;14.50;65.03;99867.13;5052260;28;45574;-68
2023/03/31 00:53:35;;;;;;;;;2.67;1.33;;;;;14.44;64.86;99856.44;5055293;28;45599;-69
2023/03/31 00:56:07;;;;;;;;;4.67;2.67;;;;;14.46;65.02;99843.88;5061129;28;45542;-70
2023/03/31 00:58:33;;;;;;;;;2.67;2.00;;;;;14.47;64.81;99834.88;5069112;28;45544;-70
2023/03/31 01:01:02;;;;;;;;;4.00;1.67;;;;;14.46;65.35;99833.13;5059861;28;45345;-68
2023/03/31 01:03:32;;;;;;;;;5.00;2.00;;;;;14.43;64.91;99823.28;5057951;28;45318;-69
2023/03/31 01:06:03;;;;;;;;;2.00;0.33;;;;;14.44;64.86;99821.50;5065123;28;45484;-70
2023/03/31 01:08:30;;;;;;;;;3.67;2.00;;;;;14.40;65.31;99817.91;5056605;28;47186;-69
2023/03/31 01:11:00;;;;;;;;;2.00;1.67;;;;;14.36;64.68;99802.72;5057824;28;45379;-69
2023/03/31 01:13:27;;;;;;;;;3.33;2.00;;;;;14.33;64.44;99806.28;5068681;28;45142;-68
2023/03/31 01:15:53;;;;;;;;;2.00;2.00;;;;;14.32;64.74;99793.78;5067609;28;45293;-69
2023/03/31 01:18:20;;;;;;;;;2.00;1.00;;;;;14.22;63.87;99788.44;5055855;28;45783;-69
2023/03/31 01:21:07;;;;;;;;;2.00;2.00;;;;;14.26;63.79;99806.34;5064431;28;45572;-70
2023/03/31 01:23:39;;;;;;;;;2.00;2.00;;;;;14.22;63.79;99799.19;5070117;28;44978;-69
2023/03/31 01:26:13;;;;;;;;;5.33;1.00;;;;;14.18;63.34;99800.97;5069109;28;44911;-68
2023/03/31 01:28:38;;;;;;;;;3.00;1.33;;;;;14.20;64.11;99785.75;5075822;28;47994;-67
2023/03/31 01:31:13;;;;;;;;;3.33;1.00;;;;;14.22;64.09;99786.63;5058827;28;45064;-70
2023/03/31 01:34:23;;;;;;;;;3.33;3.33;;;;;14.25;64.60;99781.25;5069352;28;45199;-69
2023/03/31 01:36:55;;;;;;;;;5.33;3.00;;;;;14.26;64.52;99779.47;5061971;28;45528;-68
2023/03/31 01:39:42;;;;;;;;;1.00;1.00;;;;;14.23;64.50;99766.03;5063095;28;45510;-68
2023/03/31 01:42:17;;;;;;;;;1.00;1.00;;;;;14.21;65.09;99771.44;5067800;28;45568;-70
2023/03/31 01:45:05;;;;;;;;;1.00;1.00;;;;;13.88;65.06;99705.31;5061836;28;44965;-69
2023/03/31 01:47:39;;;;;;;;;1.00;1.00;;;;;14.11;64.75;99735.66;5050084;28;45342;-69
2023/03/31 01:50:17;;;;;;;;;3.00;0.00;;;;;14.16;65.47;99741.88;5055693;28;45622;-68
2023/03/31 01:52:48;;;;;;;;;4.33;3.67;;;;;14.21;65.45;99733.81;5068906;28;45362;-69
2023/03/31 01:55:25;;;;;;;;;1.67;1.33;;;;;14.21;65.65;99727.56;5056462;28;45106;-70
2023/03/31 01:58:02;;;;;;;;;4.00;2.67;;;;;14.12;65.55;99704.31;5068302;28;45250;-69
2023/03/31 02:00:32;;;;;;;;;5.00;2.00;;;;;14.19;65.76;99719.50;5065161;28;45593;-68
2023/03/31 02:03:13;;;;;;;;;6.67;3.67;;;;;14.18;65.51;99712.34;5060194;28;45349;-69
2023/03/31 02:05:53;;;;;;;;;1.67;1.67;;;;;14.20;65.61;99713.22;5072304;28;45134;-69
2023/03/31 02:08:25;;;;;;;;;3.67;1.67;;;;;14.19;65.62;99701.59;5067482;28;45027;-69
2023/03/31 02:10:52;;;;;;;;;6.00;3.33;;;;;14.26;65.78;99689.00;5058070;28;45231;-69
2023/03/31 02:13:20;;;;;;;;;1.00;1.00;;;;;13.97;65.69;99647.09;5068616;28;45125;-69
2023/03/31 02:15:51;;;;;;;;;3.67;1.33;;;;;14.22;65.88;99684.53;5072824;28;45197;-70
2023/03/31 02:18:21;;;;;;;;;3.00;1.67;;;;;14.24;65.79;99689.91;5061185;28;45044;-69
2023/03/31 02:20:50;;;;;;;;;4.67;3.67;;;;;14.19;65.25;99677.41;5056958;28;45275;-68
2023/03/31 02:23:21;;;;;;;;;2.00;2.00;;;;;14.24;65.28;99673.78;5063483;28;45571;-68
2023/03/31 02:25:52;;;;;;;;;4.00;2.33;;;;;14.19;65.88;99681.91;5067369;28;45226;-68
2023/03/31 02:28:22;;;;;;;;;3.33;2.00;;;;;14.21;65.29;99685.47;5065307;28;45178;-69
2023/03/31 02:30:57;;;;;;;;;2.00;2.00;;;;;14.23;65.54;99680.09;5066259;28;46378;-68
2023/03/31 02:33:22;;;;;;;;;3.00;1.33;;;;;14.21;65.70;99671.16;5071004;28;45335;-67
2023/03/31 02:35:48;;;;;;;;;4.33;2.00;;;;;14.22;65.42;99667.53;5063949;28;45165;-69
2023/03/31 02:38:13;;;;;;;;;8.67;2.33;;;;;14.19;65.38;99645.19;5061272;28;45538;-68
2023/03/31 02:40:39;;;;;;;;;3.00;2.00;;;;;14.21;65.10;99650.53;5070469;28;46118;-69
2023/03/31 02:43:04;;;;;;;;;5.33;3.00;;;;;14.24;64.80;99646.91;5071270;28;45430;-67
2023/03/31 02:45:43;;;;;;;;;2.00;1.00;;;;;14.26;65.02;99639.78;5074004;28;45054;-68
2023/03/31 02:48:16;;;;;;;;;2.33;1.00;;;;;14.28;65.28;99629.91;5057443;28;45353;-69
2023/03/31 02:51:07;;;;;;;;;4.67;2.67;;;;;14.28;65.01;99617.34;5070242;28;47579;-69
2023/03/31 02:53:51;;;;;;;;;5.00;3.67;;;;;14.28;64.90;99611.97;5064254;28;45458;-68
2023/03/31 02:56:28;;;;;;;;;2.33;2.00;;;;;14.25;65.17;99601.25;5071800;28;45478;-68
2023/03/31 02:59:02;;;;;;;;;3.33;2.00;;;;;14.17;64.97;99589.66;5073205;28;45162;-67
2023/03/31 03:01:47;;;;;;;;;2.33;2.33;;;;;14.22;65.30;99589.63;5068952;28;46578;-67
2023/03/31 03:04:33;;;;;;;;;6.00;1.33;;;;;14.23;65.12;99602.19;5072360;28;45083;-70
2023/03/31 03:07:12;;;;;;;;;5.00;3.00;;;;;14.22;64.99;99592.31;5064169;28;45104;-69
2023/03/31 03:10:09;;;;;;;;;7.00;2.00;;;;;14.18;65.42;99586.09;5062593;28;45311;-69
2023/03/31 03:13:05;;;;;;;;;3.00;3.00;;;;;14.14;65.78;99582.53;5071557;28;45334;-69
2023/03/31 03:15:36;;;;;;;;;3.00;3.00;;;;;14.09;65.79;99556.59;5071712;28;45176;-68
2023/03/31 03:18:04;;;;;;;;;4.00;2.00;;;;;14.11;65.42;99581.66;5071835;28;45000;-69
2023/03/31 03:20:32;;;;;;;;;5.00;2.67;;;;;14.08;65.34;99590.63;5067104;28;45503;-69
2023/03/31 03:22:58;;;;;;;;;5.00;2.33;;;;;14.07;65.10;99596.00;5069357;28;46012;-69
2023/03/31 03:25:24;;;;;;;;;3.67;3.67;;;;;14.06;65.09;99587.06;5071588;28;45060;-69
2023/03/31 03:27:51;;;;;;;;;2.00;2.00;;;;;13.97;65.28;99558.50;5070552;28;45243;-69
2023/03/31 03:30:18;;;;;;;;;4.00;2.00;;;;;14.06;64.84;99579.00;5059978;28;45135;-69
2023/03/31 03:32:43;;;;;;;;;6.67;4.00;;;;;14.07;65.62;99569.16;5070227;28;45261;-68
2023/03/31 03:35:09;;;;;;;;;9.00;4.33;;;;;13.99;64.69;99555.75;5071051;28;45028;-68
2023/03/31 03:37:35;;;;;;;;;4.00;2.33;;;;;14.08;64.30;99562.88;5063380;28;45128;-68
2023/03/31 03:40:00;;;;;;;;;5.00;3.00;;;;;14.07;65.00;99567.34;5055071;28;45461;-69
2023/03/31 03:42:26;;;;;;;;;6.67;3.00;;;;;14.08;64.57;99561.06;5069291;28;45498;-69
2023/03/31 03:44:51;;;;;;;;;4.33;3.33;;;;;13.88;64.77;99528.13;5059696;28;45207;-69
2023/03/31 03:47:16;;;;;;;;;5.33;3.00;;;;;14.06;64.87;99554.84;5067073;28;45396;-67
2023/03/31 03:49:42;;;;;;;;;5.00;4.00;;;;;14.09;64.26;99548.53;5053548;28;47746;-69
2023/03/31 03:52:07;;;;;;;;;4.00;2.67;;;;;14.09;64.57;99533.34;5058617;28;46041;-69
2023/03/31 03:54:32;;;;;;;;;8.00;3.00;;;;;14.06;64.72;99527.97;5070355;28;45256;-69
2023/03/31 03:56:58;;;;;;;;;3.33;2.33;;;;;14.15;64.42;99540.44;5066832;28;45455;-70
2023/03/31 03:59:23;;;;;;;;;4.67;3.00;;;;;14.11;64.06;99523.47;5065821;28;44878;-69
2023/03/31 04:01:49;;;;;;;;;4.67;4.00;;;;;14.15;64.43;99533.25;5069326;28;45156;-69
2023/03/31 04:04:15;;;;;;;;;8.00;4.00;;;;;14.12;64.30;99522.56;5060803;28;45112;-69
2023/03/31 04:06:40;;;;;;;;;2.00;2.00;;;;;14.09;64.48;99517.22;5070459;28;45326;-68
2023/03/31 04:09:06;;;;;;;;;4.33;3.33;;;;;14.15;64.31;99509.09;5068557;28;45159;-69
2023/03/31 04:11:31;;;;;;;;;10.00;4.00;;;;;14.22;64.18;99522.47;5062509;28;45395;-69
2023/03/31 04:13:56;;;;;;;;;3.67;3.67;;;;;14.21;64.11;99508.16;5067278;28;45473;-69
2023/03/31 04:16:24;;;;;;;;;5.67;2.33;;;;;14.21;64.03;99501.91;5069188;28;44821;-68
2023/03/31 04:18:51;;;;;;;;;5.67;2.00;;;;;14.18;63.91;99514.44;5070730;28;45134;-68
2023/03/31 04:21:23;;;;;;;;;6.33;5.00;;;;;14.20;63.98;99522.47;5070824;28;45190;-68
2023/03/31 04:23:57;;;;;;;;;5.67;3.33;;;;;14.18;63.77;99516.25;5068069;28;45198;-68
2023/03/31 04:26:30;;;;;;;;;8.33;4.33;;;;;14.23;64.24;99505.47;5068258;28;45099;-69
2023/03/31 04:29:01;;;;;;;;;7.67;3.67;;;;;14.22;64.05;99507.25;5068917;28;45148;-69
2023/03/31 04:31:29;;;;;;;;;3.33;3.00;;;;;14.22;63.52;99509.91;5064930;28;45662;-70
2023/03/31 04:33:59;;;;;;;;;6.67;6.33;;;;;14.21;63.59;99507.28;5067978;28;45030;-69
2023/03/31 04:36:25;;;;;;;;;3.33;3.33;;;;;14.06;63.90;99486.81;5063570;28;45115;-69
2023/03/31 04:38:53;;;;;;;;;6.33;4.67;;;;;14.13;63.74;99524.34;5069922;28;44877;-68
2023/03/31 04:41:21;;;;;;;;;4.33;3.00;;;;;14.04;63.76;99499.34;5062938;28;45893;-69
2023/03/31 04:43:46;;;;;;;;;4.00;4.00;;;;;14.10;64.22;99493.94;5067138;28;45699;-69
2023/03/31 04:46:12;;;;;;;;;4.00;2.67;;;;;14.10;63.68;99486.75;5068706;28;44992;-68
2023/03/31 04:48:37;;;;;;;;;4.00;4.00;;;;;14.11;63.46;99491.22;5064982;28;45253;-69
2023/03/31 04:51:03;;;;;;;;;10.67;4.00;;;;;14.09;63.32;99498.41;5069836;28;45926;-69
2023/03/31 04:53:29;;;;;;;;;6.33;3.00;;;;;14.08;63.18;99499.31;5063386;28;45215;-69
2023/03/31 04:55:54;;;;;;;;;6.00;5.00;;;;;14.07;63.01;99499.31;5068122;28;45152;-68
2023/03/31 04:58:19;;;;;;;;;6.67;6.00;;;;;14.09;63.13;99508.25;5062325;28;45291;-68
2023/03/31 05:00:45;;;;;;;;;3.67;3.00;;;;;14.11;62.48;99498.41;5068396;28;45769;-69
2023/03/31 05:03:10;;;;;;;;;4.67;2.00;;;;;14.12;62.26;99494.78;5065903;28;45956;-68
2023/03/31 05:05:36;;;;;;;;;10.50;7.00;;;;;14.13;62.34;99491.22;5067456;28;45561;-68
2023/03/31 05:08:02;;;;;;;;;8.33;4.00;;;;;14.18;62.03;99501.00;5059107;28;45222;-69
2023/03/31 05:10:28;;;;;;;;;5.67;4.67;;;;;14.23;61.64;99490.22;5052773;28;45623;-69
2023/03/31 05:12:53;;;;;;;;;7.00;4.33;;;;;14.25;61.13;99492.91;5055186;28;45407;-69
2023/03/31 05:15:19;;;;;;;;;7.33;3.00;;;;;14.24;61.10;99485.75;5068764;28;54392;-69
2023/03/31 05:17:44;;;;;;;;;10.00;4.00;;;;;14.07;60.39;99459.91;5066034;28;45437;-70
2023/03/31 05:20:12;;;;;;;;;8.33;4.00;;;;;14.14;60.34;99475.09;5059369;28;46027;-70
2023/03/31 05:22:39;;;;;;;;;7.67;4.67;;;;;14.15;60.29;99466.09;5063251;28;45411;-69
2023/03/31 05:25:06;;;;;;;;;2.67;2.00;;;;;14.15;59.69;99474.16;5071164;28;45220;-69
2023/03/31 05:27:32;;;;;;;;;10.33;4.67;;;;;14.14;59.55;99487.63;5067788;28;45216;-69
2023/03/31 05:29:58;;;;;;;;;8.33;6.00;;;;;14.13;59.77;99467.03;5067992;28;45347;-70
2023/03/31 05:32:24;;;;;;;;;10.67;9.00;;;;;14.09;59.52;99468.88;5064007;28;45271;-69
2023/03/31 05:34:51;;;;;;;;;10.00;5.33;;;;;14.11;59.58;99468.88;5067494;28;45044;-69
2023/03/31 05:37:18;;;;;;;;;12.25;11.00;;;;;14.07;59.38;99459.91;5060614;28;45604;-68
2023/03/31 05:39:43;;;;;;;;;10.33;5.00;;;;;14.14;59.48;99467.03;5069833;28;45321;-68
2023/03/31 05:42:09;;;;;;;;;8.33;3.33;;;;;14.13;59.11;99464.34;5058803;28;50364;-69
2023/03/31 05:44:34;;;;;;;;;6.33;3.33;;;;;14.18;58.93;99462.53;5059947;28;45365;-68
2023/03/31 05:47:00;;;;;;;;;10.00;5.00;;;;;14.19;59.05;99441.03;5069284;28;45169;-69
2023/03/31 05:49:25;;;;;;;;;10.67;5.00;;;;;14.24;58.93;99464.25;5058364;28;45816;-69
2023/03/31 05:51:52;;;;;;;;;13.75;6.75;;;;;14.26;58.87;99451.72;5067432;28;44927;-66
2023/03/31 05:54:17;;;;;;;;;14.00;5.33;;;;;14.19;58.22;99451.75;5060657;28;45371;-68
2023/03/31 05:56:43;;;;;;;;;9.67;5.00;;;;;14.23;58.06;99457.13;5071527;28;45036;-68
2023/03/31 05:59:08;;;;;;;;;7.00;2.00;;;;;14.28;58.02;99466.00;5071585;28;47186;-69
2023/03/31 06:01:33;;;;;;;;;7.67;3.33;;;;;14.26;58.13;99473.22;5071513;28;45275;-68
2023/03/31 06:03:59;;;;;;;;;8.33;4.33;;;;;14.23;58.54;99478.59;5070053;28;45303;-68
2023/03/31 06:06:24;;;;;;;;;7.33;2.67;;;;;14.21;58.27;99472.34;5061712;28;45647;-68
2023/03/31 06:08:50;;;;;;;;;10.33;4.00;;;;;14.15;58.55;99475.97;5051646;28;46112;-67
2023/03/31 06:11:19;;;;;;;;;7.67;4.00;;;;;14.09;58.77;99465.28;5048500;28;45421;-68
2023/03/31 06:13:45;;;;;;;;;7.67;6.33;;;;;14.11;59.17;99455.44;5048341;28;45296;-70
2023/03/31 06:16:12;;;;;;;;;10.33;4.67;;;;;14.10;59.09;99467.06;5044190;28;45813;-68
2023/03/31 06:18:38;;;;;;;;;6.67;4.33;;;;;14.04;58.96;99459.97;5048073;28;46524;-68
2023/03/31 06:21:05;;;;;;;;;6.33;6.00;;;;;14.09;58.53;99452.75;5055563;28;45314;-70
2023/03/31 06:23:30;;;;;;;;;8.00;5.67;;;;;14.09;58.56;99457.22;5055174;28;45404;-68
2023/03/31 06:26:01;;;;;;;;;5.33;4.00;;;;;14.08;58.29;99450.09;5046421;28;45669;-69
2023/03/31 06:28:27;;;;;;;;;6.33;1.67;;;;;14.14;57.90;99458.97;5051680;28;46312;-70
2023/03/31 06:31:00;;;;;;;;;9.67;6.33;;;;;14.11;57.91;99452.75;5047972;28;45566;-69
2023/03/31 06:33:25;;;;;;;;;8.67;3.33;;;;;14.19;58.16;99464.31;5050707;28;45697;-70
2023/03/31 06:35:55;;;;;;;;;19.67;6.00;;;;;14.20;58.18;99458.00;5053990;28;45391;-71
2023/03/31 06:38:20;;;;;;;;;6.33;3.67;;;;;14.22;58.02;99458.00;5055443;28;45354;-71
2023/03/31 06:40:45;;;;;;;;;9.00;7.00;;;;;14.24;57.52;99470.53;5046160;28;45501;-69
2023/03/31 06:43:11;;;;;;;;;8.67;5.00;;;;;13.95;57.61;99423.31;5051694;28;45437;-69
2023/03/31 06:45:36;;;;;;;;;4.67;4.67;;;;;14.06;57.79;99449.22;5044636;28;46207;-69
2023/03/31 06:48:01;;;;;;;;;5.33;3.00;;;;;14.19;57.50;99470.56;5052637;28;46149;-70
2023/03/31 06:50:27;;;;;;;;;9.67;6.33;;;;;14.16;57.84;99459.84;5038719;28;45508;-70
2023/03/31 06:52:54;;;;;;;;;5.67;4.00;;;;;14.26;57.56;99467.84;5044267;28;45701;-70
2023/03/31 06:55:19;;;;;;;;;3.00;3.00;;;;;14.28;57.45;99482.13;5055468;28;45631;-69
2023/03/31 06:57:44;;;;;;;;;4.67;4.33;;;;;14.25;57.74;99468.72;5043268;28;45983;-69
2023/03/31 07:00:10;;;;;;;;;7.33;3.67;;;;;14.29;57.19;99457.94;5047686;28;45345;-69
2023/03/31 07:02:36;;;;;;;;;12.33;4.00;;;;;14.27;57.07;99461.53;5045435;28;45346;-69
2023/03/31 07:05:02;;;;;;;;;7.00;4.00;;;;;14.17;56.95;99434.78;5054050;28;45357;-69
2023/03/31 07:07:31;;;;;;;;;7.33;2.67;;;;;14.28;57.42;99450.78;5046525;28;45670;-68
2023/03/31 07:09:56;;;;;;;;;13.00;4.33;;;;;14.08;56.99;99428.59;5049052;28;45415;-68
2023/03/31 07:12:22;;;;;;;;;11.67;5.00;;;;;14.25;56.89;99457.97;5045193;28;45528;-70
2023/03/31 07:14:47;;;;;;;;;8.00;6.00;;;;;14.28;56.66;99441.84;5053804;28;45627;-69
2023/03/31 07:17:12;;;;;;;;;7.00;6.00;;;;;14.27;56.74;99461.53;5049771;28;46037;-68
2023/03/31 07:19:41;;;;;;;;;8.00;4.00;;;;;14.17;56.96;99439.25;5049919;28;45509;-69
2023/03/31 07:22:07;;;;;;;;;5.00;4.00;;;;;14.21;56.95;99464.31;5053759;28;45428;-69
2023/03/31 07:24:32;;;;;;;;;3.33;2.00;;;;;14.21;56.99;99446.38;5061605;28;45577;-68
2023/03/31 07:26:58;;;;;;;;;3.00;2.00;;;;;14.07;57.22;99443.81;5045401;28;45543;-69
2023/03/31 07:29:23;;;;;;;;;5.00;3.00;;;;;14.14;57.19;99450.91;5051109;28;45813;-70
2023/03/31 07:31:49;;;;;;;;;2.67;1.33;;;;;14.22;57.23;99458.88;5049498;28;45500;-69
2023/03/31 07:34:15;;;;;;;;;6.00;3.33;;;;;14.18;57.15;99460.72;5052697;28;45590;-68
2023/03/31 07:36:40;;;;;;;;;4.00;2.00;;;;;14.23;57.48;99470.53;5050743;28;46109;-70
2023/03/31 07:39:06;;;;;;;;;7.67;4.00;;;;;14.23;57.30;99457.13;5044475;28;45577;-69
2023/03/31 07:41:31;;;;;;;;;6.67;3.00;;;;;14.19;57.59;99461.63;5052878;28;45660;-69
2023/03/31 07:43:56;;;;;;;;;3.00;3.00;;;;;14.23;57.52;99459.78;5048170;28;45656;-73
2023/03/31 07:46:24;;;;;;;;;4.67;2.00;;;;;14.19;57.86;99470.56;5041669;28;47900;-74
2023/03/31 07:48:51;;;;;;;;;5.67;5.00;;;;;14.28;56.99;99482.13;5045259;28;45450;-73
2023/03/31 07:51:19;;;;;;;;;6.33;4.00;;;;;14.27;57.28;99473.19;5051298;28;45560;-76
2023/03/31 07:53:45;;;;;;;;;5.33;3.33;;;;;14.29;56.76;99470.50;5046120;28;45531;-72
2023/03/31 07:56:11;;;;;;;;;8.33;4.00;;;;;14.22;56.84;99463.38;5053836;28;46088;-75
2023/03/31 07:58:37;;;;;;;;;4.67;2.33;;;;;14.38;57.25;99471.28;5053857;28;45806;-71
2023/03/31 08:01:02;;;;;;;;;3.67;3.00;;;;;14.47;57.04;99482.84;5051458;28;45372;-75
2023/03/31 08:03:28;;;;;;;;;8.67;3.33;;;;;14.43;57.35;99471.22;5051796;28;45327;-77
2023/03/31 08:05:54;;;;;;;;;6.00;3.33;;;;;14.40;56.98;99452.44;5048585;28;45656;-73
2023/03/31 08:08:20;;;;;;;;;4.00;2.00;;;;;14.51;56.94;99463.97;5053906;28;45349;-75
2023/03/31 08:10:46;;;;;;;;;5.00;2.00;;;;;14.42;56.84;99449.75;5039944;28;45748;-77
2023/03/31 08:13:12;;;;;;;;;5.33;3.33;;;;;14.38;57.28;99443.53;5049531;28;45500;-74
2023/03/31 08:15:37;;;;;;;;;5.33;2.33;;;;;14.55;57.07;99460.38;5051650;28;45815;-73
2023/03/31 08:18:03;;;;;;;;;2.67;2.00;;;;;14.60;57.31;99473.81;5034775;28;45384;-76
2023/03/31 08:20:28;;;;;;;;;3.67;3.00;;;;;14.65;57.35;99482.69;5053520;28;45291;-75
2023/03/31 08:22:54;;;;;;;;;12.00;5.00;;;;;14.64;57.05;99480.91;5045548;28;45291;-73
2023/03/31 08:25:20;;;;;;;;;10.33;5.33;;;;;14.61;57.42;99472.88;5048733;28;45981;-75
2023/03/31 08:27:49;;;;;;;;;4.67;3.33;;;;;14.64;56.99;99469.28;5047374;28;45613;-71
2023/03/31 08:30:16;;;;;;;;;6.00;3.00;;;;;14.61;57.61;99464.81;5053742;28;45432;-72
2023/03/31 08:32:41;;;;;;;;;6.67;3.00;;;;;14.69;57.24;99468.31;5050013;28;45358;-72
2023/03/31 08:35:07;;;;;;;;;6.67;3.67;;;;;14.72;56.99;99470.09;5044212;28;45597;-72
2023/03/31 08:37:32;;;;;;;;;5.33;5.00;;;;;14.62;57.04;99450.47;5047186;28;45486;-69
2023/03/31 08:39:59;;;;;;;;;6.33;2.67;;;;;14.65;56.86;99461.19;5054091;28;45650;-74
2023/03/31 08:42:31;;;;;;;;;7.00;3.33;;;;;14.74;57.13;99476.31;5054004;28;45552;-69
2023/03/31 08:45:02;;;;;;;;;7.00;4.00;;;;;14.79;56.52;99457.47;5053634;28;47354;-71
2023/03/31 08:47:31;;;;;;;;;7.67;4.00;;;;;14.78;56.48;99466.41;5070491;28;45408;-68
2023/03/31 08:50:10;;;;;;;;;5.00;4.33;;;;;14.86;56.57;99465.41;5041482;28;45310;-71
2023/03/31 08:52:51;;;;;;;;;5.00;3.00;;;;;14.91;56.08;99458.22;5054647;28;45611;-74
2023/03/31 08:55:24;;;;;;;;;9.00;4.00;;;;;14.99;55.46;99468.84;5042249;28;46576;-74
2023/03/31 08:57:56;;;;;;;;;9.33;4.67;;;;;15.02;55.32;99449.13;5053798;28;45484;-71
2023/03/31 09:00:21;;;;;;;;;8.33;4.67;;;;;15.06;55.01;99451.75;5053010;28;45492;-73
2023/03/31 09:02:58;;;;;;;;;7.33;3.67;;;;;15.20;54.98;99458.75;5040654;28;45450;-70
2023/03/31 09:05:38;;;;;;;;;4.00;3.67;;;;;15.29;53.89;99448.75;5052000;28;47164;-73
2023/03/31 09:08:36;;;;;;;;;5.00;3.00;;;;;15.34;52.72;99459.44;5050606;28;45560;-70
2023/03/31 09:11:13;;;;;;;;;8.33;6.00;;;;;15.33;52.31;99462.13;5048437;28;45345;-74
2023/03/31 09:13:45;;;;;;;;;7.67;4.67;;;;;15.29;51.75;99453.22;5055049;28;45596;-72
2023/03/31 09:16:13;;;;;;;;;6.67;2.00;;;;;15.28;51.77;99460.41;5047807;28;45542;-73
2023/03/31 09:18:45;;;;;;;;;7.67;4.67;;;;;15.21;52.20;99430.91;5045258;28;45305;-73
2023/03/31 09:21:15;;;;;;;;;7.33;5.00;;;;;15.36;52.15;99464.78;5051210;28;45614;-76
2023/03/31 09:24:05;;;;;;;;;4.67;0.67;;;;;15.40;52.08;99455.78;5053712;28;45598;-73
2023/03/31 09:26:47;;;;;;;;;5.67;4.00;;;;;15.42;52.04;99449.44;5052426;28;46590;-68
2023/03/31 09:29:41;;;;;;;;;7.67;4.67;;;;;15.44;51.94;99470.94;5052803;28;45421;-71
2023/03/31 09:32:28;;;;;;;;;3.00;3.00;;;;;15.00;51.57;99392.66;5045561;28;45454;-74
2023/03/31 09:35:15;;;;;;;;;8.00;5.00;;;;;15.32;53.44;99463.06;5047901;28;45494;-71
2023/03/31 09:37:40;;;;;;;;;5.67;4.00;;;;;15.27;54.33;99474.78;5039555;28;46227;-68
2023/03/31 09:40:06;;;;;;;;;2.00;2.00;;;;;15.11;55.33;99467.81;5052533;28;45359;-70
2023/03/31 09:42:36;;;;;;;;;2.33;2.33;;;;;15.09;55.81;99453.50;5052906;28;45620;-73
2023/03/31 09:45:02;;;;;;;;;4.00;3.00;;;;;15.05;56.43;99447.28;5040564;28;45336;-67
2023/03/31 09:47:41;;;;;;;;;5.00;2.00;;;;;14.71;56.01;99398.41;5052176;28;45864;-70
2023/03/31 09:50:08;;;;;;;;;10.67;4.67;;;;;15.09;56.88;99457.06;5039736;28;45515;-68
2023/03/31 09:52:38;;;;;;;;;6.67;2.00;;;;;15.12;55.20;99448.06;5051224;28;45492;-66
2023/03/31 09:55:18;;;;;;;;;3.67;2.33;;;;;15.19;54.78;99454.25;5064470;28;45438;-67
2023/03/31 09:57:44;;;;;;;;;3.00;3.00;;;;;15.24;53.63;99438.94;5047487;28;45421;-68
2023/03/31 10:00:13;;;;;;;;;4.33;2.00;;;;;15.29;53.27;99442.47;5053397;28;45538;-69
2023/03/31 10:02:50;;;;;;;;;5.00;4.00;;;;;15.33;52.38;99440.59;5049563;28;45370;-71
2023/03/31 10:05:26;;;;;;;;;9.00;4.00;;;;;15.36;52.65;99452.25;5052921;28;45641;-73
2023/03/31 10:08:11;;;;;;;;;1.67;1.67;;;;;15.17;52.09;99405.84;5051782;28;45800;-73
2023/03/31 10:10:37;;;;;;;;;3.33;3.33;;;;;15.36;51.86;99436.09;5038891;28;45444;-68
2023/03/31 10:13:09;;;;;;;;;4.33;3.00;;;;;15.20;52.06;99416.56;5051032;28;45891;-69
2023/03/31 10:15:38;;;;;;;;;3.33;2.00;;;;;15.36;52.20;99430.72;5052491;28;45523;-69
2023/03/31 10:18:03;;;;;;;;;3.33;3.33;;;;;15.23;51.88;99408.47;5042747;28;45535;-68
2023/03/31 10:20:42;;;;;;;;;1.67;0.67;;;;;15.51;51.40;99450.22;5047944;28;45401;-69
2023/03/31 10:23:25;;;;;;;;;4.33;1.33;;;;;15.10;50.53;99378.16;5048221;28;45541;-69
2023/03/31 10:25:52;;;;;;;;;2.67;1.00;;;;;15.59;50.86;99435.75;5047449;28;45346;-70
2023/03/31 10:28:19;;;;;;;;;4.33;2.33;;;;;15.11;50.27;99350.34;5054409;28;46141;-71
2023/03/31 10:30:51;;;;;;;;;4.67;2.67;;;;;15.65;50.84;99438.34;5055435;28;45575;-72
2023/03/31 10:33:23;;;;;;;;;6.33;2.33;;;;;15.75;50.23;99435.50;5054199;28;45418;-69
2023/03/31 10:35:55;;;;;;;;;1.67;1.67;;;;;15.73;49.88;99411.28;5051883;28;46188;-70
2023/03/31 10:38:32;;;;;;;;;2.33;1.33;;;;;15.92;49.43;99425.41;5049915;28;46412;-74
2023/03/31 10:40:58;;;;;;;;;0.33;0.33;;;;;15.67;48.82;99373.69;5048666;28;45564;-71
2023/03/31 10:43:28;;;;;;;;;1.67;1.33;;;;;15.78;48.97;99395.97;5051322;28;45679;-68
2023/03/31 10:46:01;;;;;;;;;2.00;2.00;;;;;16.02;47.75;99424.31;5055287;28;45439;-70
2023/03/31 10:48:30;;;;;;;;;2.67;2.00;;;;;15.91;48.43;99407.44;5055353;28;45563;-69
2023/03/31 10:51:19;;;;;;;;;2.33;2.00;;;;;15.98;47.80;99429.78;5049856;28;45328;-70
2023/03/31 10:53:52;;;;;;;;;4.00;1.67;;;;;16.02;48.09;99434.22;5054586;28;45543;-73
2023/03/31 10:56:42;;;;;;;;;7.00;7.00;;;;;16.13;47.87;99431.31;5049296;28;45497;-71
2023/03/31 10:59:19;;;;;;;;;3.00;1.33;;;;;16.19;47.53;99442.00;5047365;28;45453;-73
2023/03/31 11:02:03;;;;;;;;;6.00;1.67;;;;;16.24;46.89;99420.38;5049294;28;45532;-70
2023/03/31 11:04:56;;;;;;;;;3.33;1.00;;;;;16.21;47.36;99443.72;5051503;28;45555;-68
2023/03/31 11:07:50;;;;;;;;;1.67;1.33;;;;;16.22;47.61;99431.16;5045977;28;45520;-66
2023/03/31 11:11:03;;;;;;;;;1.67;1.67;;;;;16.27;47.48;99429.28;5042853;28;45504;-71
2023/03/31 11:13:55;;;;;;;;;1.67;1.67;;;;;16.23;47.91;99422.16;5041313;28;45549;-68
2023/03/31 11:16:39;;;;;;;;;1.67;1.67;;;;;16.19;47.17;99436.59;5054914;28;45360;-69
2023/03/31 11:19:40;;;;;;;;;5.67;4.00;;;;;16.18;48.04;99442.91;5044706;28;45687;-70
2023/03/31 11:22:20;;;;;;;;;5.67;3.33;;;;;16.17;48.16;99411.50;5031106;28;46129;-72
2023/03/31 11:25:04;;;;;;;;;6.00;4.00;;;;;16.17;47.99;99431.25;5054314;28;45354;-67
2023/03/31 11:27:49;;;;;;;;;1.00;1.00;;;;;16.02;48.72;99401.88;5053967;28;45451;-67
2023/03/31 11:30:27;;;;;;;;;1.33;0.00;;;;;16.12;47.75;99419.66;5053666;28;45507;-70
2023/03/31 11:33:23;;;;;;;;;3.67;1.33;;;;;16.34;47.93;99425.53;5060181;28;46246;-69
2023/03/31 11:36:11;;;;;;;;;12.33;6.33;;;;;16.34;47.13;99416.56;5038479;28;45585;-67
2023/03/31 11:38:52;;;;;;;;;3.00;2.67;;;;;16.35;47.13;99416.53;5046271;28;45457;-69
2023/03/31 11:41:22;;;;;;;;;2.33;2.00;;;;;16.41;47.44;99410.13;5041917;28;45540;-66
2023/03/31 11:43:54;;;;;;;;;7.00;2.00;;;;;16.45;46.66;99386.69;5053257;28;45414;-70
2023/03/31 11:46:26;;;;;;;;;3.00;1.67;;;;;16.53;46.76;99399.13;5053175;28;45417;-68
2023/03/31 11:49:02;;;;;;;;;0.67;0.67;;;;;16.59;46.23;99408.91;5051647;28;45406;-67
2023/03/31 11:51:49;;;;;;;;;1.00;0.33;;;;;16.48;47.60;99382.16;5047621;28;45569;-69
2023/03/31 11:54:36;;;;;;;;;2.00;0.67;;;;;16.42;48.27;99402.97;5053148;28;45503;-71
2023/03/31 11:57:12;;;;;;;;;2.33;1.67;;;;;16.38;48.23;99388.63;5053426;28;45644;-68
2023/03/31 11:59:39;;;;;;;;;1.67;0.67;;;;;16.50;46.87;99392.88;5051854;28;45449;-65
2023/03/31 12:02:20;;;;;;;;;1.67;1.67;;;;;16.62;46.32;99398.06;5043875;28;45599;-67
2023/03/31 12:04:52;;;;;;;;;1.33;0.00;;;;;16.73;45.25;99393.34;5045242;28;48093;-67
2023/03/31 12:07:36;;;;;;;;;0.67;0.67;;;;;16.77;45.21;99400.44;5046041;28;45737;-69
2023/03/31 12:10:23;;;;;;;;;1.00;1.00;;;;;16.73;45.58;99390.63;5047127;28;45431;-71